sensor_id;sensor_type;location;lat;lon;timestamp;temperature;humidity
2435;DHT22;1228;51.022;6.764;2023-09-30T00:00:59;12.50;99.90
2435;DHT22;1228;51.022;6.764;2023-09-30T00:03:25;12.50;99.90
2435;DHT22;1228;51.022;6.764;2023-09-30T00:05:50;12.40;99.90
2435;DHT22;1228;51.022;6.764;2023-09-30T00:08:16;12.40;99.90
2435;DHT22;1228;51.022;6.764;2023-09-30T00:10:42;12.40;99.90
2435;DHT22;1228;51.022;6.764;2023-09-30T00:13:07;12.40;99.90
2435;DHT22;1228;51.022;6.764;2023-09-30T00:15:33;12.30;99.90
2435;DHT22;1228;51.022;6.764;2023-09-30T00:17:59;12.20;99.90
2435;DHT22;1228;51.022;6.764;2023-09-30T00:20:27;12.20;99.90
2435;DHT22;1228;51.022;6.764;2023-09-30T00:22:52;12.20;99.90
2435;DHT22;1228;51.022;6.764;2023-09-30T00:25:18;12.20;99.90
2435;DHT22;1228;51.022;6.764;2023-09-30T00:27:44;12.20;99.90
2435;DHT22;1228;51.022;6.764;2023-09-30T00:30:10;12.30;99.90
2435;DHT22;1228;51.022;6.764;2023-09-30T00:32:35;12.30;99.90
2435;DHT22;1228;51.022;6.764;2023-09-30T00:35:01;12.30;99.90
2435;DHT22;1228;51.022;6.764;2023-09-30T00:37:28;12.40;99.90
2435;DHT22;1228;51.022;6.764;2023-09-30T00:39:53;12.40;99.90
2435;DHT22;1228;51.022;6.764;2023-09-30T00:42:20;12.50;99.90
2435;DHT22;1228;51.022;6.764;2023-09-30T00:44:46;12.50;99.90
2435;DHT22;1228;51.022;6.764;2023-09-30T00:47:13;12.40;99.90
2435;DHT22;1228;51.022;6.764;2023-09-30T00:49:40;12.40;99.90
2435;DHT22;1228;51.022;6.764;2023-09-30T00:52:09;12.40;99.90
2435;DHT22;1228;51.022;6.764;2023-09-30T00:54:35;12.40;99.90
2435;DHT22;1228;51.022;6.764;2023-09-30T00:57:03;12.40;99.90
2435;DHT22;1228;51.022;6.764;2023-09-30T00:59:31;12.40;99.90
2435;DHT22;1228;51.022;6.764;2023-09-30T01:01:58;12.40;99.90
2435;DHT22;1228;51.022;6.764;2023-09-30T01:04:26;12.40;99.90
2435;DHT22;1228;51.022;6.764;2023-09-30T01:06:52;12.40;99.90
2435;DHT22;1228;51.022;6.764;2023-09-30T01:09:18;12.40;99.90
2435;DHT22;1228;51.022;6.764;2023-09-30T01:11:44;12.40;99.90
2435;DHT22;1228;51.022;6.764;2023-09-30T01:14:32;12.50;99.90
2435;DHT22;1228;51.022;6.764;2023-09-30T01:17:00;12.50;99.90
2435;DHT22;1228;51.022;6.764;2023-09-30T01:19:26;12.50;99.90
2435;DHT22;1228;51.022;6.764;2023-09-30T01:21:56;12.50;99.90
2435;DHT22;1228;51.022;6.764;2023-09-30T01:24:29;12.50;99.90
2435;DHT22;1228;51.022;6.764;2023-09-30T01:26:56;12.60;99.90
2435;DHT22;1228;51.022;6.764;2023-09-30T01:29:22;12.60;99.90
2435;DHT22;1228;51.022;6.764;2023-09-30T01:31:48;12.50;99.90
2435;DHT22;1228;51.022;6.764;2023-09-30T01:34:15;12.50;99.90
2435;DHT22;1228;51.022;6.764;2023-09-30T01:36:42;12.50;99.90
2435;DHT22;1228;51.022;6.764;2023-09-30T01:39:11;12.50;99.90
2435;DHT22;1228;51.022;6.764;2023-09-30T01:41:40;12.50;99.90
2435;DHT22;1228;51.022;6.764;2023-09-30T01:44:07;12.60;99.90
2435;DHT22;1228;51.022;6.764;2023-09-30T01:46:32;12.60;99.90
2435;DHT22;1228;51.022;6.764;2023-09-30T01:48:58;12.60;99.90
2435;DHT22;1228;51.022;6.764;2023-09-30T01:51:24;12.70;99.90
2435;DHT22;1228;51.022;6.764;2023-09-30T01:53:50;12.70;99.90
2435;DHT22;1228;51.022;6.764;2023-09-30T01:56:15;12.70;99.90
2435;DHT22;1228;51.022;6.764;2023-09-30T01:58:41;12.70;99.90
2435;DHT22;1228;51.022;6.764;2023-09-30T02:01:07;12.60;99.90
2435;DHT22;1228;51.022;6.764;2023-09-30T02:03:32;12.60;99.90
2435;DHT22;1228;51.022;6.764;2023-09-30T02:05:58;12.50;99.90
2435;DHT22;1228;51.022;6.764;2023-09-30T02:08:24;12.40;99.90
2435;DHT22;1228;51.022;6.764;2023-09-30T02:10:50;12.40;99.90
2435;DHT22;1228;51.022;6.764;2023-09-30T02:13:19;12.30;99.90
2435;DHT22;1228;51.022;6.764;2023-09-30T02:15:45;12.30;99.90
2435;DHT22;1228;51.022;6.764;2023-09-30T02:18:11;12.20;99.90
2435;DHT22;1228;51.022;6.764;2023-09-30T02:20:37;12.20;99.90
2435;DHT22;1228;51.022;6.764;2023-09-30T02:23:09;12.30;99.90
2435;DHT22;1228;51.022;6.764;2023-09-30T02:25:38;12.20;99.90
2435;DHT22;1228;51.022;6.764;2023-09-30T02:28:05;12.10;99.90
2435;DHT22;1228;51.022;6.764;2023-09-30T02:30:31;12.10;99.90
2435;DHT22;1228;51.022;6.764;2023-09-30T02:32:57;12.00;99.90
2435;DHT22;1228;51.022;6.764;2023-09-30T02:35:23;12.00;99.90
2435;DHT22;1228;51.022;6.764;2023-09-30T02:37:49;11.90;99.90
2435;DHT22;1228;51.022;6.764;2023-09-30T02:40:18;11.90;99.90
2435;DHT22;1228;51.022;6.764;2023-09-30T02:42:45;11.90;99.90
2435;DHT22;1228;51.022;6.764;2023-09-30T02:45:12;11.90;99.90
2435;DHT22;1228;51.022;6.764;2023-09-30T02:47:38;11.90;99.90
2435;DHT22;1228;51.022;6.764;2023-09-30T02:50:06;11.80;99.90
2435;DHT22;1228;51.022;6.764;2023-09-30T02:52:33;11.80;99.90
2435;DHT22;1228;51.022;6.764;2023-09-30T02:54:59;11.80;99.90
2435;DHT22;1228;51.022;6.764;2023-09-30T02:57:25;11.80;99.90
2435;DHT22;1228;51.022;6.764;2023-09-30T02:59:53;11.80;99.90
2435;DHT22;1228;51.022;6.764;2023-09-30T03:02:20;11.80;99.90
2435;DHT22;1228;51.022;6.764;2023-09-30T03:04:47;11.80;99.90
2435;DHT22;1228;51.022;6.764;2023-09-30T03:07:13;11.80;99.90
2435;DHT22;1228;51.022;6.764;2023-09-30T03:09:39;11.80;99.90
2435;DHT22;1228;51.022;6.764;2023-09-30T03:12:05;11.80;99.90
2435;DHT22;1228;51.022;6.764;2023-09-30T03:14:31;11.80;99.90
2435;DHT22;1228;51.022;6.764;2023-09-30T03:16:58;11.80;99.90
2435;DHT22;1228;51.022;6.764;2023-09-30T03:19:24;11.80;99.90
2435;DHT22;1228;51.022;6.764;2023-09-30T03:21:49;11.70;99.90
2435;DHT22;1228;51.022;6.764;2023-09-30T03:24:15;11.70;99.90
2435;DHT22;1228;51.022;6.764;2023-09-30T03:26:41;11.70;99.90
2435;DHT22;1228;51.022;6.764;2023-09-30T03:29:07;11.60;99.90
2435;DHT22;1228;51.022;6.764;2023-09-30T03:31:34;11.60;99.90
2435;DHT22;1228;51.022;6.764;2023-09-30T03:34:00;11.60;99.90
2435;DHT22;1228;51.022;6.764;2023-09-30T03:36:26;11.60;99.90
2435;DHT22;1228;51.022;6.764;2023-09-30T03:38:54;11.50;99.90
2435;DHT22;1228;51.022;6.764;2023-09-30T03:41:20;11.40;99.90
2435;DHT22;1228;51.022;6.764;2023-09-30T03:43:45;11.30;99.90
2435;DHT22;1228;51.022;6.764;2023-09-30T03:46:12;11.30;99.90
2435;DHT22;1228;51.022;6.764;2023-09-30T03:48:38;11.20;99.90
2435;DHT22;1228;51.022;6.764;2023-09-30T03:51:11;11.10;99.90
2435;DHT22;1228;51.022;6.764;2023-09-30T03:53:46;11.10;99.90
2435;DHT22;1228;51.022;6.764;2023-09-30T03:56:12;11.10;99.90
2435;DHT22;1228;51.022;6.764;2023-09-30T03:58:42;11.00;99.90
2435;DHT22;1228;51.022;6.764;2023-09-30T04:01:11;11.00;99.90
2435;DHT22;1228;51.022;6.764;2023-09-30T04:03:37;10.90;99.90
2435;DHT22;1228;51.022;6.764;2023-09-30T04:06:05;10.90;99.90
2435;DHT22;1228;51.022;6.764;2023-09-30T04:08:35;10.90;99.90
2435;DHT22;1228;51.022;6.764;2023-09-30T04:11:01;10.90;99.90
2435;DHT22;1228;51.022;6.764;2023-09-30T04:13:28;10.90;99.90
2435;DHT22;1228;51.022;6.764;2023-09-30T04:15:55;11.00;99.90
2435;DHT22;1228;51.022;6.764;2023-09-30T04:18:20;11.00;99.90
2435;DHT22;1228;51.022;6.764;2023-09-30T04:20:48;11.00;99.90
2435;DHT22;1228;51.022;6.764;2023-09-30T04:23:14;11.00;99.90
2435;DHT22;1228;51.022;6.764;2023-09-30T04:25:40;11.10;99.90
2435;DHT22;1228;51.022;6.764;2023-09-30T04:28:06;11.10;99.90
2435;DHT22;1228;51.022;6.764;2023-09-30T04:30:34;11.10;99.90
2435;DHT22;1228;51.022;6.764;2023-09-30T04:33:00;11.00;99.90
2435;DHT22;1228;51.022;6.764;2023-09-30T04:35:26;11.00;99.90
2435;DHT22;1228;51.022;6.764;2023-09-30T04:37:52;11.00;99.90
2435;DHT22;1228;51.022;6.764;2023-09-30T04:40:18;10.90;99.90
2435;DHT22;1228;51.022;6.764;2023-09-30T04:42:47;10.90;99.90
2435;DHT22;1228;51.022;6.764;2023-09-30T04:45:13;10.90;99.90
2435;DHT22;1228;51.022;6.764;2023-09-30T04:47:42;10.90;99.90
2435;DHT22;1228;51.022;6.764;2023-09-30T04:50:10;10.80;99.90
2435;DHT22;1228;51.022;6.764;2023-09-30T04:52:37;10.80;99.90
2435;DHT22;1228;51.022;6.764;2023-09-30T04:55:04;10.70;99.90
2435;DHT22;1228;51.022;6.764;2023-09-30T04:57:30;10.70;99.90
2435;DHT22;1228;51.022;6.764;2023-09-30T04:59:57;10.70;99.90
2435;DHT22;1228;51.022;6.764;2023-09-30T05:02:24;10.70;99.90
2435;DHT22;1228;51.022;6.764;2023-09-30T05:04:49;10.70;99.90
2435;DHT22;1228;51.022;6.764;2023-09-30T05:07:15;10.70;99.90
2435;DHT22;1228;51.022;6.764;2023-09-30T05:09:41;10.60;99.90
2435;DHT22;1228;51.022;6.764;2023-09-30T05:12:08;10.60;99.90
2435;DHT22;1228;51.022;6.764;2023-09-30T05:14:35;10.70;99.90
2435;DHT22;1228;51.022;6.764;2023-09-30T05:17:02;10.60;99.90
2435;DHT22;1228;51.022;6.764;2023-09-30T05:19:27;10.50;99.90
2435;DHT22;1228;51.022;6.764;2023-09-30T05:21:53;10.50;99.90
2435;DHT22;1228;51.022;6.764;2023-09-30T05:24:19;10.50;99.90
2435;DHT22;1228;51.022;6.764;2023-09-30T05:26:45;10.50;99.90
2435;DHT22;1228;51.022;6.764;2023-09-30T05:29:10;10.50;99.90
2435;DHT22;1228;51.022;6.764;2023-09-30T05:31:36;10.50;99.90
2435;DHT22;1228;51.022;6.764;2023-09-30T05:34:02;10.40;99.90
2435;DHT22;1228;51.022;6.764;2023-09-30T05:36:27;10.50;99.90
2435;DHT22;1228;51.022;6.764;2023-09-30T05:38:54;10.50;99.90
2435;DHT22;1228;51.022;6.764;2023-09-30T05:41:21;10.50;99.90
2435;DHT22;1228;51.022;6.764;2023-09-30T05:43:47;10.40;99.90
2435;DHT22;1228;51.022;6.764;2023-09-30T05:46:12;10.50;99.90
2435;DHT22;1228;51.022;6.764;2023-09-30T05:48:38;10.60;99.90
2435;DHT22;1228;51.022;6.764;2023-09-30T05:51:07;10.70;99.90
2435;DHT22;1228;51.022;6.764;2023-09-30T05:53:32;10.80;99.90
2435;DHT22;1228;51.022;6.764;2023-09-30T05:55:59;10.80;99.90
2435;DHT22;1228;51.022;6.764;2023-09-30T05:58:25;10.90;99.90
2435;DHT22;1228;51.022;6.764;2023-09-30T06:00:52;11.00;99.90
2435;DHT22;1228;51.022;6.764;2023-09-30T06:03:18;11.00;99.90
2435;DHT22;1228;51.022;6.764;2023-09-30T06:05:46;11.10;99.90
2435;DHT22;1228;51.022;6.764;2023-09-30T06:08:14;11.20;99.90
2435;DHT22;1228;51.022;6.764;2023-09-30T06:10:43;11.30;99.90
2435;DHT22;1228;51.022;6.764;2023-09-30T06:13:13;11.40;99.90
2435;DHT22;1228;51.022;6.764;2023-09-30T06:15:42;11.50;99.90
2435;DHT22;1228;51.022;6.764;2023-09-30T06:18:09;11.60;99.90
2435;DHT22;1228;51.022;6.764;2023-09-30T06:20:37;11.70;99.90
2435;DHT22;1228;51.022;6.764;2023-09-30T06:23:03;11.70;99.90
2435;DHT22;1228;51.022;6.764;2023-09-30T06:25:29;11.80;99.90
2435;DHT22;1228;51.022;6.764;2023-09-30T06:27:56;11.90;99.90
2435;DHT22;1228;51.022;6.764;2023-09-30T06:30:22;12.00;99.90
2435;DHT22;1228;51.022;6.764;2023-09-30T06:32:57;12.00;99.90
2435;DHT22;1228;51.022;6.764;2023-09-30T06:35:25;12.00;99.90
2435;DHT22;1228;51.022;6.764;2023-09-30T06:37:51;12.10;99.90
2435;DHT22;1228;51.022;6.764;2023-09-30T06:40:17;12.20;99.90
2435;DHT22;1228;51.022;6.764;2023-09-30T06:42:44;12.20;99.90
2435;DHT22;1228;51.022;6.764;2023-09-30T06:45:10;12.20;99.90
2435;DHT22;1228;51.022;6.764;2023-09-30T06:47:36;12.40;99.90
2435;DHT22;1228;51.022;6.764;2023-09-30T06:50:04;12.80;99.90
2435;DHT22;1228;51.022;6.764;2023-09-30T06:52:40;13.20;99.90
2435;DHT22;1228;51.022;6.764;2023-09-30T06:55:07;13.80;99.90
2435;DHT22;1228;51.022;6.764;2023-09-30T06:57:37;14.20;99.90
2435;DHT22;1228;51.022;6.764;2023-09-30T07:00:10;14.70;99.90
2435;DHT22;1228;51.022;6.764;2023-09-30T07:02:37;15.10;99.90
2435;DHT22;1228;51.022;6.764;2023-09-30T07:05:11;15.60;99.90
2435;DHT22;1228;51.022;6.764;2023-09-30T07:07:37;16.00;99.90
2435;DHT22;1228;51.022;6.764;2023-09-30T07:10:06;16.40;99.90
2435;DHT22;1228;51.022;6.764;2023-09-30T07:12:32;16.70;99.90
2435;DHT22;1228;51.022;6.764;2023-09-30T07:15:01;17.00;99.90
2435;DHT22;1228;51.022;6.764;2023-09-30T07:17:27;17.20;99.90
2435;DHT22;1228;51.022;6.764;2023-09-30T07:19:52;17.60;99.90
2435;DHT22;1228;51.022;6.764;2023-09-30T07:22:18;18.10;99.90
2435;DHT22;1228;51.022;6.764;2023-09-30T07:24:44;18.50;99.90
2435;DHT22;1228;51.022;6.764;2023-09-30T07:27:10;18.80;99.90
2435;DHT22;1228;51.022;6.764;2023-09-30T07:29:35;18.90;99.90
2435;DHT22;1228;51.022;6.764;2023-09-30T07:32:01;19.10;99.90
2435;DHT22;1228;51.022;6.764;2023-09-30T07:34:26;19.40;99.90
2435;DHT22;1228;51.022;6.764;2023-09-30T07:36:52;19.70;99.90
2435;DHT22;1228;51.022;6.764;2023-09-30T07:39:18;20.00;99.90
2435;DHT22;1228;51.022;6.764;2023-09-30T07:41:43;20.40;99.90
2435;DHT22;1228;51.022;6.764;2023-09-30T07:44:09;20.90;99.90
2435;DHT22;1228;51.022;6.764;2023-09-30T07:46:35;21.40;99.90
2435;DHT22;1228;51.022;6.764;2023-09-30T07:49:01;21.80;99.90
2435;DHT22;1228;51.022;6.764;2023-09-30T07:51:28;22.00;99.90
2435;DHT22;1228;51.022;6.764;2023-09-30T07:53:55;22.40;99.90
2435;DHT22;1228;51.022;6.764;2023-09-30T07:56:20;22.70;99.90
2435;DHT22;1228;51.022;6.764;2023-09-30T07:58:48;22.90;99.90
2435;DHT22;1228;51.022;6.764;2023-09-30T08:01:14;23.00;99.90
2435;DHT22;1228;51.022;6.764;2023-09-30T08:03:40;23.10;99.90
2435;DHT22;1228;51.022;6.764;2023-09-30T08:06:07;23.30;99.90
2435;DHT22;1228;51.022;6.764;2023-09-30T08:08:34;23.70;99.90
2435;DHT22;1228;51.022;6.764;2023-09-30T08:11:00;24.10;99.90
2435;DHT22;1228;51.022;6.764;2023-09-30T08:13:26;24.40;99.90
2435;DHT22;1228;51.022;6.764;2023-09-30T08:15:51;24.70;99.90
2435;DHT22;1228;51.022;6.764;2023-09-30T08:18:18;25.10;99.90
2435;DHT22;1228;51.022;6.764;2023-09-30T08:20:44;25.40;99.90
2435;DHT22;1228;51.022;6.764;2023-09-30T08:23:10;25.90;99.90
2435;DHT22;1228;51.022;6.764;2023-09-30T08:25:37;26.20;99.90
2435;DHT22;1228;51.022;6.764;2023-09-30T08:28:04;26.60;99.90
2435;DHT22;1228;51.022;6.764;2023-09-30T08:30:29;27.10;99.90
2435;DHT22;1228;51.022;6.764;2023-09-30T08:32:56;27.10;99.90
2435;DHT22;1228;51.022;6.764;2023-09-30T08:35:21;27.20;99.90
2435;DHT22;1228;51.022;6.764;2023-09-30T08:37:47;27.30;99.90
2435;DHT22;1228;51.022;6.764;2023-09-30T08:40:13;27.50;99.90
2435;DHT22;1228;51.022;6.764;2023-09-30T08:42:39;27.60;99.90
2435;DHT22;1228;51.022;6.764;2023-09-30T08:45:05;27.40;99.90
2435;DHT22;1228;51.022;6.764;2023-09-30T08:47:33;27.20;99.90
2435;DHT22;1228;51.022;6.764;2023-09-30T08:50:03;27.10;99.90
2435;DHT22;1228;51.022;6.764;2023-09-30T08:52:40;26.80;99.90
2435;DHT22;1228;51.022;6.764;2023-09-30T08:55:09;26.50;99.90
2435;DHT22;1228;51.022;6.764;2023-09-30T08:57:40;26.30;99.90
2435;DHT22;1228;51.022;6.764;2023-09-30T09:00:08;26.10;99.90
2435;DHT22;1228;51.022;6.764;2023-09-30T09:02:37;26.10;99.90
2435;DHT22;1228;51.022;6.764;2023-09-30T09:05:03;26.10;99.90
2435;DHT22;1228;51.022;6.764;2023-09-30T09:07:29;25.90;99.90
2435;DHT22;1228;51.022;6.764;2023-09-30T09:12:35;26.20;99.90
2435;DHT22;1228;51.022;6.764;2023-09-30T09:15:01;26.40;99.90
2435;DHT22;1228;51.022;6.764;2023-09-30T09:17:41;26.50;99.90
2435;DHT22;1228;51.022;6.764;2023-09-30T09:20:11;26.60;99.90
2435;DHT22;1228;51.022;6.764;2023-09-30T09:22:42;26.40;99.90
2435;DHT22;1228;51.022;6.764;2023-09-30T09:25:09;26.10;99.90
2435;DHT22;1228;51.022;6.764;2023-09-30T09:27:35;25.80;99.90
2435;DHT22;1228;51.022;6.764;2023-09-30T09:33:04;26.00;99.90
2435;DHT22;1228;51.022;6.764;2023-09-30T09:35:32;26.10;99.90
2435;DHT22;1228;51.022;6.764;2023-09-30T09:38:02;26.20;99.90
2435;DHT22;1228;51.022;6.764;2023-09-30T09:40:36;26.20;99.90
2435;DHT22;1228;51.022;6.764;2023-09-30T09:43:02;26.10;99.90
2435;DHT22;1228;51.022;6.764;2023-09-30T09:45:35;26.00;99.90
2435;DHT22;1228;51.022;6.764;2023-09-30T09:48:02;26.00;99.90
2435;DHT22;1228;51.022;6.764;2023-09-30T09:50:30;25.80;99.90
2435;DHT22;1228;51.022;6.764;2023-09-30T09:52:58;25.60;99.90
2435;DHT22;1228;51.022;6.764;2023-09-30T09:55:27;25.40;99.90
2435;DHT22;1228;51.022;6.764;2023-09-30T09:57:53;25.40;99.90
2435;DHT22;1228;51.022;6.764;2023-09-30T10:00:24;25.50;99.90
2435;DHT22;1228;51.022;6.764;2023-09-30T10:02:51;25.50;99.90
2435;DHT22;1228;51.022;6.764;2023-09-30T10:05:18;25.50;99.90
2435;DHT22;1228;51.022;6.764;2023-09-30T10:07:53;25.40;99.90
2435;DHT22;1228;51.022;6.764;2023-09-30T10:10:21;25.40;99.90
2435;DHT22;1228;51.022;6.764;2023-09-30T10:12:47;24.90;99.90
2435;DHT22;1228;51.022;6.764;2023-09-30T10:20:31;23.80;99.90
2435;DHT22;1228;51.022;6.764;2023-09-30T10:25:49;22.90;99.90
2435;DHT22;1228;51.022;6.764;2023-09-30T10:28:37;23.00;99.90
2435;DHT22;1228;51.022;6.764;2023-09-30T10:31:20;23.10;99.90
2435;DHT22;1228;51.022;6.764;2023-09-30T10:36:40;23.10;99.90
2435;DHT22;1228;51.022;6.764;2023-09-30T10:39:12;23.00;99.90
2435;DHT22;1228;51.022;6.764;2023-09-30T10:46:58;23.10;99.90
2435;DHT22;1228;51.022;6.764;2023-09-30T10:51:57;23.40;99.90
2435;DHT22;1228;51.022;6.764;2023-09-30T10:54:24;23.70;99.90
2435;DHT22;1228;51.022;6.764;2023-09-30T10:56:51;24.00;99.90
2435;DHT22;1228;51.022;6.764;2023-09-30T10:59:22;24.40;99.90
2435;DHT22;1228;51.022;6.764;2023-09-30T11:01:49;24.70;99.90
2435;DHT22;1228;51.022;6.764;2023-09-30T11:04:14;24.80;99.90
2435;DHT22;1228;51.022;6.764;2023-09-30T11:06:41;24.80;99.90
2435;DHT22;1228;51.022;6.764;2023-09-30T11:09:07;24.90;99.90
2435;DHT22;1228;51.022;6.764;2023-09-30T11:11:39;24.80;99.90
2435;DHT22;1228;51.022;6.764;2023-09-30T11:16:53;24.80;99.90
2435;DHT22;1228;51.022;6.764;2023-09-30T11:19:20;24.70;99.90
2435;DHT22;1228;51.022;6.764;2023-09-30T11:21:48;24.90;99.90
2435;DHT22;1228;51.022;6.764;2023-09-30T11:24:14;25.10;99.90
2435;DHT22;1228;51.022;6.764;2023-09-30T11:26:39;25.10;99.90
2435;DHT22;1228;51.022;6.764;2023-09-30T11:29:13;24.70;99.90
2435;DHT22;1228;51.022;6.764;2023-09-30T11:31:42;24.60;99.90
2435;DHT22;1228;51.022;6.764;2023-09-30T11:34:09;24.40;99.90
2435;DHT22;1228;51.022;6.764;2023-09-30T11:36:48;24.40;99.90
2435;DHT22;1228;51.022;6.764;2023-09-30T11:39:26;24.30;99.90
2435;DHT22;1228;51.022;6.764;2023-09-30T11:41:52;23.70;99.90
2435;DHT22;1228;51.022;6.764;2023-09-30T11:44:18;23.30;99.90
2435;DHT22;1228;51.022;6.764;2023-09-30T11:46:50;23.20;99.90
2435;DHT22;1228;51.022;6.764;2023-09-30T11:51:59;22.90;99.90
2435;DHT22;1228;51.022;6.764;2023-09-30T11:54:44;22.80;99.90
2435;DHT22;1228;51.022;6.764;2023-09-30T11:57:17;22.90;99.90
2435;DHT22;1228;51.022;6.764;2023-09-30T11:59:47;23.10;99.90
2435;DHT22;1228;51.022;6.764;2023-09-30T12:02:16;23.10;99.90
2435;DHT22;1228;51.022;6.764;2023-09-30T12:04:43;23.10;99.90
2435;DHT22;1228;51.022;6.764;2023-09-30T12:07:10;23.20;99.90
2435;DHT22;1228;51.022;6.764;2023-09-30T12:09:36;23.40;99.90
2435;DHT22;1228;51.022;6.764;2023-09-30T12:12:06;23.70;99.90
2435;DHT22;1228;51.022;6.764;2023-09-30T12:14:35;24.00;99.90
2435;DHT22;1228;51.022;6.764;2023-09-30T12:17:00;23.80;99.90
2435;DHT22;1228;51.022;6.764;2023-09-30T12:19:26;23.90;99.90
2435;DHT22;1228;51.022;6.764;2023-09-30T12:21:52;24.10;99.90
2435;DHT22;1228;51.022;6.764;2023-09-30T12:24:18;24.30;99.90
2435;DHT22;1228;51.022;6.764;2023-09-30T12:26:50;24.40;99.90
2435;DHT22;1228;51.022;6.764;2023-09-30T12:29:20;24.40;99.90
2435;DHT22;1228;51.022;6.764;2023-09-30T12:31:48;24.60;99.90
2435;DHT22;1228;51.022;6.764;2023-09-30T12:34:14;24.80;99.90
2435;DHT22;1228;51.022;6.764;2023-09-30T12:36:41;24.80;99.90
2435;DHT22;1228;51.022;6.764;2023-09-30T12:39:07;24.90;99.90
2435;DHT22;1228;51.022;6.764;2023-09-30T12:41:43;24.90;99.90
2435;DHT22;1228;51.022;6.764;2023-09-30T12:44:10;24.90;99.90
2435;DHT22;1228;51.022;6.764;2023-09-30T12:46:36;24.80;99.90
2435;DHT22;1228;51.022;6.764;2023-09-30T12:49:09;24.90;99.90
2435;DHT22;1228;51.022;6.764;2023-09-30T12:51:35;24.80;99.90
2435;DHT22;1228;51.022;6.764;2023-09-30T12:54:02;24.80;99.90
2435;DHT22;1228;51.022;6.764;2023-09-30T12:56:28;24.90;99.90
2435;DHT22;1228;51.022;6.764;2023-09-30T12:58:57;25.10;99.90
2435;DHT22;1228;51.022;6.764;2023-09-30T13:01:23;25.00;99.90
2435;DHT22;1228;51.022;6.764;2023-09-30T13:03:49;24.80;99.90
2435;DHT22;1228;51.022;6.764;2023-09-30T13:06:15;24.60;99.90
2435;DHT22;1228;51.022;6.764;2023-09-30T13:08:42;24.50;99.90
2435;DHT22;1228;51.022;6.764;2023-09-30T13:11:08;24.60;99.90
2435;DHT22;1228;51.022;6.764;2023-09-30T13:13:34;24.90;99.90
2435;DHT22;1228;51.022;6.764;2023-09-30T13:16:01;25.10;99.90
2435;DHT22;1228;51.022;6.764;2023-09-30T13:18:27;25.20;99.90
2435;DHT22;1228;51.022;6.764;2023-09-30T13:20:53;25.00;99.90
2435;DHT22;1228;51.022;6.764;2023-09-30T13:23:19;25.00;99.90
2435;DHT22;1228;51.022;6.764;2023-09-30T13:25:45;25.00;99.90
2435;DHT22;1228;51.022;6.764;2023-09-30T13:28:10;24.90;99.90
2435;DHT22;1228;51.022;6.764;2023-09-30T13:30:37;24.60;99.90
2435;DHT22;1228;51.022;6.764;2023-09-30T13:33:03;24.20;99.90
2435;DHT22;1228;51.022;6.764;2023-09-30T13:35:28;24.20;99.90
2435;DHT22;1228;51.022;6.764;2023-09-30T13:37:54;24.20;99.90
2435;DHT22;1228;51.022;6.764;2023-09-30T13:40:20;24.20;99.90
2435;DHT22;1228;51.022;6.764;2023-09-30T13:42:45;24.00;99.90
2435;DHT22;1228;51.022;6.764;2023-09-30T13:45:12;24.00;99.90
2435;DHT22;1228;51.022;6.764;2023-09-30T13:47:37;24.00;99.90
2435;DHT22;1228;51.022;6.764;2023-09-30T13:50:03;23.80;99.90
2435;DHT22;1228;51.022;6.764;2023-09-30T13:52:30;23.70;99.90
2435;DHT22;1228;51.022;6.764;2023-09-30T13:54:55;23.50;99.90
2435;DHT22;1228;51.022;6.764;2023-09-30T13:57:21;23.30;99.90
2435;DHT22;1228;51.022;6.764;2023-09-30T13:59:47;23.10;99.90
2435;DHT22;1228;51.022;6.764;2023-09-30T14:02:12;22.90;99.90
2435;DHT22;1228;51.022;6.764;2023-09-30T14:04:38;22.70;99.90
2435;DHT22;1228;51.022;6.764;2023-09-30T14:07:04;22.50;99.90
2435;DHT22;1228;51.022;6.764;2023-09-30T14:09:33;22.50;99.90
2435;DHT22;1228;51.022;6.764;2023-09-30T14:11:59;22.50;99.90
2435;DHT22;1228;51.022;6.764;2023-09-30T14:14:25;22.60;99.90
2435;DHT22;1228;51.022;6.764;2023-09-30T14:16:51;22.60;99.90
2435;DHT22;1228;51.022;6.764;2023-09-30T14:19:17;22.80;99.90
2435;DHT22;1228;51.022;6.764;2023-09-30T14:21:43;22.80;99.90
2435;DHT22;1228;51.022;6.764;2023-09-30T14:24:09;23.00;99.90
2435;DHT22;1228;51.022;6.764;2023-09-30T14:26:35;23.00;99.90
2435;DHT22;1228;51.022;6.764;2023-09-30T14:29:01;22.80;99.90
2435;DHT22;1228;51.022;6.764;2023-09-30T14:31:27;22.60;99.90
2435;DHT22;1228;51.022;6.764;2023-09-30T14:33:52;22.40;99.90
2435;DHT22;1228;51.022;6.764;2023-09-30T14:36:18;22.40;99.90
2435;DHT22;1228;51.022;6.764;2023-09-30T14:38:47;22.40;99.90
2435;DHT22;1228;51.022;6.764;2023-09-30T14:41:13;22.50;99.90
2435;DHT22;1228;51.022;6.764;2023-09-30T14:43:39;22.50;99.90
2435;DHT22;1228;51.022;6.764;2023-09-30T14:46:05;22.50;99.90
2435;DHT22;1228;51.022;6.764;2023-09-30T14:48:31;22.50;99.90
2435;DHT22;1228;51.022;6.764;2023-09-30T14:50:56;22.60;99.90
2435;DHT22;1228;51.022;6.764;2023-09-30T14:53:23;22.90;99.90
2435;DHT22;1228;51.022;6.764;2023-09-30T14:55:50;23.20;99.90
2435;DHT22;1228;51.022;6.764;2023-09-30T14:58:15;23.70;99.90
2435;DHT22;1228;51.022;6.764;2023-09-30T15:00:41;23.90;99.90
2435;DHT22;1228;51.022;6.764;2023-09-30T15:03:07;23.80;99.90
2435;DHT22;1228;51.022;6.764;2023-09-30T15:05:33;23.80;99.90
2435;DHT22;1228;51.022;6.764;2023-09-30T15:07:59;23.50;99.90
2435;DHT22;1228;51.022;6.764;2023-09-30T15:10:27;23.40;99.90
2435;DHT22;1228;51.022;6.764;2023-09-30T15:12:53;23.10;99.90
2435;DHT22;1228;51.022;6.764;2023-09-30T15:15:18;22.90;99.90
2435;DHT22;1228;51.022;6.764;2023-09-30T15:17:44;22.70;99.90
2435;DHT22;1228;51.022;6.764;2023-09-30T15:20:10;22.50;99.90
2435;DHT22;1228;51.022;6.764;2023-09-30T15:22:36;22.30;99.90
2435;DHT22;1228;51.022;6.764;2023-09-30T15:25:02;22.20;99.90
2435;DHT22;1228;51.022;6.764;2023-09-30T15:27:29;22.00;99.90
2435;DHT22;1228;51.022;6.764;2023-09-30T15:29:55;21.90;99.90
2435;DHT22;1228;51.022;6.764;2023-09-30T15:32:21;21.60;99.90
2435;DHT22;1228;51.022;6.764;2023-09-30T15:34:47;21.50;99.90
2435;DHT22;1228;51.022;6.764;2023-09-30T15:37:13;21.40;99.90
2435;DHT22;1228;51.022;6.764;2023-09-30T15:39:40;21.30;99.90
2435;DHT22;1228;51.022;6.764;2023-09-30T15:42:06;21.10;99.90
2435;DHT22;1228;51.022;6.764;2023-09-30T15:44:34;21.00;99.90
2435;DHT22;1228;51.022;6.764;2023-09-30T15:47:00;20.90;99.90
2435;DHT22;1228;51.022;6.764;2023-09-30T15:49:25;20.80;99.90
2435;DHT22;1228;51.022;6.764;2023-09-30T15:51:51;20.80;99.90
2435;DHT22;1228;51.022;6.764;2023-09-30T15:54:16;20.80;99.90
2435;DHT22;1228;51.022;6.764;2023-09-30T15:56:42;20.70;99.90
2435;DHT22;1228;51.022;6.764;2023-09-30T15:59:08;20.70;99.90
2435;DHT22;1228;51.022;6.764;2023-09-30T16:01:36;20.60;99.90
2435;DHT22;1228;51.022;6.764;2023-09-30T16:04:02;20.60;99.90
2435;DHT22;1228;51.022;6.764;2023-09-30T16:06:28;20.60;99.90
2435;DHT22;1228;51.022;6.764;2023-09-30T16:08:53;20.60;99.90
2435;DHT22;1228;51.022;6.764;2023-09-30T16:11:28;20.50;99.90
2435;DHT22;1228;51.022;6.764;2023-09-30T16:13:54;20.40;99.90
2435;DHT22;1228;51.022;6.764;2023-09-30T16:16:20;20.40;99.90
2435;DHT22;1228;51.022;6.764;2023-09-30T16:18:46;20.30;99.90
2435;DHT22;1228;51.022;6.764;2023-09-30T16:21:12;20.20;99.90
2435;DHT22;1228;51.022;6.764;2023-09-30T16:23:38;20.10;99.90
2435;DHT22;1228;51.022;6.764;2023-09-30T16:26:03;19.90;99.90
2435;DHT22;1228;51.022;6.764;2023-09-30T16:28:29;19.70;99.90
2435;DHT22;1228;51.022;6.764;2023-09-30T16:30:55;19.60;99.90